If you wish to contribute or participate in the discussions about articles you are invited to join SKYbrary as a registered user

 Actions

Kiev/Boryspil International Airport

From SKYbrary Wiki

UKBB
Airport
ICAO: UKBB – IATA: KBP
Summary
Name Kiev/Boryspil International Airport
Region Europe
Territory Ukraine UA.gif
Location Boryspil
Serving Kiev
Elevation 130.15 m
427 ft
427 ft130.15 m
Coordinates 50° 20' 42.00" N, 30° 53' 36.00" E
Runways
Designator Length Width Surface ROPS
18L/36R 4000 m13,123.36 ft
60 m196.85 ft
CON yes/yes
18R/36L 3500 m11,482.94 ft
63 m206.693 ft
CON yes/yes


METAR
Observation UKBB 210530Z 13007MPS CAVOK 19/11 Q1012 R88/CLRD// NOSIG
Station Boryspil
Date/Time 21 May 2019 05:30:00
Wind direction 130°
Wind speed kts
Lowest cloud amount clouds and visibility OK
Temperature 19°C
Dew point 11°C
Humidity 59%
QNH 1012 hPa
Weather condition n/a

Kiev/Boryspil International Airport

ICAO: UKBB IATA: KBP

Description

International airport serving Ukrainian capital city.

Climatology

Humid Continental climate (Köppen climate classification Dfb) - Variable weather patterns and a large seasonal temperature variance. Summers are often warm and humid with frequent thunderstorms and winters can be very cold with frequent snowfall and persistent snow cover.

Maps

Terrain

Loading map...

Airport Layout

Loading map...


Accidents & Serious Incidents at or in vicinity of UKBB

None on SKYbrary